This is the latest recevied weather packets stored in our database for station/object K7MT-WX. If no packets are shown the sender has not sent any weather packets the latest 10 day(s).
| Time | Temp. | Humidity | Pressure | Rain* | Wind** | Luminosity | Snow |
|---|---|---|---|---|---|---|---|
| 1788014758 | 15° C | 84% | 1014.2 hPa | 0 mm | - | - | - |
| 1788013858 | 13.89° C | 86% | 1014.3 hPa | 0 mm | - | - | - |
| 1788012958 | 13.33° C | 88% | 1014.3 hPa | 0 mm | - | - | - |
| 1788012028 | 13.33° C | 88% | 1014.4 hPa | 0 mm | - | - | - |
| 1788011128 | 12.78° C | 88% | 1014.4 hPa | 0 mm | - | - | - |
| 1788010228 | 13.33° C | 89% | 1014.4 hPa | 0 mm | - | - | - |
| 1788009328 | 13.33° C | 89% | 1014.3 hPa | 0 mm | - | - | - |
| 1788008428 | 13.33° C | 89% | 1014.2 hPa | 0 mm | - | - | - |
| 1788007528 | 13.89° C | 87% | 1014.2 hPa | 0 mm | - | - | - |
| 1788006628 | 14.44° C | 85% | 1014.3 hPa | 0 mm | - | - | - |
| 1788005728 | 14.44° C | 84% | 1014.3 hPa | 0 mm | - | - | - |
| 1788004828 | 14.44° C | 86% | 1014.2 hPa | 0 mm | - | - | - |
| 1788003929 | 15° C | 84% | 1014.3 hPa | 0 mm | - | - | - |
| 1788003028 | 13.89° C | 88% | 1014.3 hPa | 0 mm | - | - | - |
| 1788002139 | 13.89° C | 87% | 1014.4 hPa | 0 mm | - | - | - |
| 1788001228 | 14.44° C | 86% | 1014.5 hPa | 0 mm | - | - | - |
| 1788000328 | 14.44° C | 86% | 1014.3 hPa | 0 mm | - | - | - |
| 1787999428 | 15° C | 85% | 1014.4 hPa | 0 mm | - | - | - |
| 1787998528 | 15° C | 84% | 1014.3 hPa | 0 mm | - | - | - |
| 1787997628 | 15° C | 84% | 1014.2 hPa | 0 mm | - | - | - |
| 1787996728 | 15.56° C | 83% | 1014.1 hPa | 0 mm | - | - | - |
| 1787995828 | 16.11° C | 82% | 1014.2 hPa | 0 mm | - | - | - |
| 1787994928 | 16.11° C | 81% | 1014.1 hPa | 0 mm | - | - | - |
| 1787994028 | 16.67° C | 78% | 1014.1 hPa | 0 mm | - | - | - |
| 1787993128 | 16.67° C | 76% | 1014.2 hPa | 0 mm | - | - | - |
* Rain latest hour (hover to see other rain measurements)
** Current wind speed in m/s (hover to see current wind gust speed)